N583VC K3W2-KLAF
Flight info
| Callsign | N583VC |
|---|---|
| Flight time | N/A |
| Altitude | 18000 |
| Route | FASTI |
| Aircraft | B60T/L-SDFGRY/C |
Departure
| Time | N/A |
|---|---|
| Airport | K3W2 |
Arrival
| Time | 2026-04-27 01:57 |
|---|---|
| Airport | Purdue University Airport (KLAF) |
| Time | Latitude | Longitude | Altitude | Speed | Heading |
|---|---|---|---|---|---|
| 2026-04-27 00:12 | 41.63774 | -82.82858 | 595 ft | 0 kts | 172° |
| 2026-04-27 00:45 | 41.63765 | -82.82844 | 595 ft | 9 kts | 90° |
| 2026-04-27 00:45 | 41.63821 | -82.82788 | 594 ft | 10 kts | 30° |
| 2026-04-27 00:45 | 41.63843 | -82.82747 | 594 ft | 8 kts | 191° |
| 2026-04-27 00:46 | 41.63764 | -82.82818 | 594 ft | 12 kts | 212° |
| 2026-04-27 00:46 | 41.63697 | -82.82880 | 593 ft | 18 kts | 198° |
| 2026-04-27 00:46 | 41.63592 | -82.82961 | 596 ft | 17 kts | 212° |
| 2026-04-27 00:46 | 41.63499 | -82.83043 | 599 ft | 16 kts | 212° |
| 2026-04-27 00:47 | 41.63417 | -82.83114 | 600 ft | 8 kts | 213° |
| 2026-04-27 00:47 | 41.63378 | -82.83145 | 601 ft | 5 kts | 190° |
| 2026-04-27 00:47 | 41.63375 | -82.83145 | 601 ft | 0 kts | 188° |
| 2026-04-27 00:49 | 41.63352 | -82.83123 | 613 ft | 6 kts | 102° |
| 2026-04-27 00:49 | 41.63365 | -82.83093 | 601 ft | 0 kts | 33° |
| 2026-04-27 00:50 | 41.63799 | -82.82727 | 653 ft | 100 kts | 32° |
| 2026-04-27 00:50 | 41.64546 | -82.82212 | 1008 ft | 134 kts | 22° |
| 2026-04-27 00:51 | 41.65451 | -82.81808 | 1718 ft | 137 kts | 25° |
| 2026-04-27 00:51 | 41.66040 | -82.81499 | 2218 ft | 135 kts | 37° |
| 2026-04-27 00:51 | 41.66470 | -82.80495 | 2940 ft | 128 kts | 95° |
| 2026-04-27 00:51 | 41.65986 | -82.79553 | 3644 ft | 133 kts | 149° |
| 2026-04-27 00:52 | 41.65104 | -82.79199 | 4301 ft | 132 kts | 158° |
| 2026-04-27 00:52 | 41.64210 | -82.78925 | 4910 ft | 136 kts | 177° |
| 2026-04-27 00:52 | 41.63391 | -82.79550 | 5442 ft | 144 kts | 235° |
| 2026-04-27 00:52 | 41.62852 | -82.80675 | 6013 ft | 143 kts | 242° |
| 2026-04-27 00:53 | 41.62546 | -82.81900 | 6601 ft | 137 kts | 266° |
| 2026-04-27 00:53 | 41.62439 | -82.83147 | 7162 ft | 134 kts | 269° |
| 2026-04-27 00:53 | 41.62324 | -82.84379 | 7731 ft | 133 kts | 268° |
| 2026-04-27 00:53 | 41.62201 | -82.85594 | 8300 ft | 131 kts | 268° |
| 2026-04-27 00:54 | 41.62086 | -82.86800 | 8857 ft | 130 kts | 268° |
| 2026-04-27 00:54 | 41.62056 | -82.87988 | 9426 ft | 126 kts | 275° |
| 2026-04-27 00:54 | 41.61878 | -82.89142 | 9995 ft | 128 kts | 257° |
| 2026-04-27 00:54 | 41.61597 | -82.90268 | 10467 ft | 129 kts | 255° |
| 2026-04-27 00:55 | 41.61300 | -82.91390 | 10914 ft | 130 kts | 254° |
| 2026-04-27 00:55 | 41.60991 | -82.92526 | 11369 ft | 131 kts | 253° |
| 2026-04-27 00:55 | 41.60668 | -82.93695 | 11744 ft | 140 kts | 253° |
| 2026-04-27 00:55 | 41.60326 | -82.94953 | 12137 ft | 148 kts | 252° |
| 2026-04-27 00:56 | 41.59963 | -82.96271 | 12550 ft | 154 kts | 252° |
| 2026-04-27 00:56 | 41.59588 | -82.97630 | 13015 ft | 156 kts | 252° |
| 2026-04-27 00:56 | 41.59208 | -82.99001 | 13491 ft | 158 kts | 251° |
| 2026-04-27 00:56 | 41.58827 | -83.00380 | 13986 ft | 158 kts | 252° |
| 2026-04-27 00:57 | 41.58443 | -83.01767 | 14412 ft | 159 kts | 251° |
| 2026-04-27 00:57 | 41.58059 | -83.03151 | 14853 ft | 159 kts | 252° |
| 2026-04-27 00:57 | 41.57675 | -83.04537 | 15289 ft | 159 kts | 252° |
| 2026-04-27 00:57 | 41.57288 | -83.05934 | 15702 ft | 161 kts | 252° |
| 2026-04-27 00:58 | 41.56896 | -83.07344 | 16122 ft | 162 kts | 252° |
| 2026-04-27 00:58 | 41.56510 | -83.08735 | 16537 ft | 162 kts | 252° |
| 2026-04-27 00:58 | 41.56118 | -83.10144 | 16964 ft | 162 kts | 252° |
| 2026-04-27 00:58 | 41.55726 | -83.11555 | 17397 ft | 162 kts | 252° |
| 2026-04-27 00:59 | 41.55333 | -83.12967 | 17829 ft | 162 kts | 252° |
| 2026-04-27 00:59 | 41.54927 | -83.14431 | 18006 ft | 178 kts | 252° |
| 2026-04-27 00:59 | 41.54476 | -83.16063 | 18020 ft | 196 kts | 251° |
| 2026-04-27 00:59 | 41.53986 | -83.17824 | 18017 ft | 209 kts | 251° |
| 2026-04-27 01:00 | 41.53469 | -83.19684 | 18015 ft | 217 kts | 251° |
| 2026-04-27 01:00 | 41.52940 | -83.21578 | 18015 ft | 224 kts | 251° |
| 2026-04-27 01:00 | 41.52392 | -83.23541 | 18017 ft | 228 kts | 251° |
| 2026-04-27 01:00 | 41.51832 | -83.25543 | 18014 ft | 231 kts | 251° |
| 2026-04-27 01:01 | 41.51267 | -83.27564 | 18010 ft | 234 kts | 251° |
| 2026-04-27 01:01 | 41.50695 | -83.29605 | 18012 ft | 235 kts | 251° |
| 2026-04-27 01:01 | 41.50120 | -83.31660 | 18010 ft | 237 kts | 251° |
| 2026-04-27 01:01 | 41.49542 | -83.33719 | 18007 ft | 237 kts | 251° |
| 2026-04-27 01:02 | 41.48963 | -83.35781 | 18007 ft | 238 kts | 251° |
| 2026-04-27 01:02 | 41.48382 | -83.37850 | 18008 ft | 238 kts | 251° |
| 2026-04-27 01:02 | 41.47799 | -83.39924 | 18009 ft | 238 kts | 251° |
| 2026-04-27 01:02 | 41.47216 | -83.41995 | 18009 ft | 239 kts | 251° |
| 2026-04-27 01:03 | 41.46633 | -83.44067 | 18010 ft | 239 kts | 251° |
| 2026-04-27 01:03 | 41.46048 | -83.46142 | 18010 ft | 239 kts | 251° |
| 2026-04-27 01:03 | 41.45462 | -83.48219 | 18008 ft | 239 kts | 251° |
| 2026-04-27 01:03 | 41.44876 | -83.50296 | 18009 ft | 239 kts | 251° |
| 2026-04-27 01:04 | 41.44289 | -83.52375 | 18009 ft | 240 kts | 251° |
| 2026-04-27 01:04 | 41.43705 | -83.54439 | 18006 ft | 240 kts | 251° |
| 2026-04-27 01:04 | 41.43115 | -83.56526 | 18007 ft | 239 kts | 251° |
| 2026-04-27 01:04 | 41.42528 | -83.58597 | 18001 ft | 239 kts | 250° |
| 2026-04-27 01:05 | 41.41939 | -83.60674 | 17998 ft | 239 kts | 250° |
| 2026-04-27 01:05 | 41.41350 | -83.62750 | 17987 ft | 239 kts | 250° |
| 2026-04-27 01:05 | 41.40762 | -83.64822 | 17987 ft | 239 kts | 250° |
| 2026-04-27 01:05 | 41.40174 | -83.66893 | 17987 ft | 239 kts | 250° |
| 2026-04-27 01:06 | 41.39592 | -83.68939 | 17990 ft | 239 kts | 250° |
| 2026-04-27 01:06 | 41.39004 | -83.71006 | 17980 ft | 239 kts | 250° |
| 2026-04-27 01:06 | 41.38405 | -83.73106 | 17979 ft | 240 kts | 250° |
| 2026-04-27 01:06 | 41.37822 | -83.75155 | 17978 ft | 240 kts | 250° |
| 2026-04-27 01:07 | 41.37228 | -83.77237 | 17976 ft | 240 kts | 250° |
| 2026-04-27 01:07 | 41.36635 | -83.79314 | 17976 ft | 240 kts | 250° |
| 2026-04-27 01:07 | 41.36040 | -83.81394 | 17977 ft | 240 kts | 250° |
| 2026-04-27 01:07 | 41.35446 | -83.83473 | 17975 ft | 240 kts | 250° |
| 2026-04-27 01:08 | 41.34850 | -83.85555 | 17973 ft | 241 kts | 250° |
| 2026-04-27 01:08 | 41.34254 | -83.87634 | 17974 ft | 241 kts | 250° |
| 2026-04-27 01:08 | 41.33658 | -83.89715 | 17974 ft | 241 kts | 250° |
| 2026-04-27 01:08 | 41.33061 | -83.91796 | 17975 ft | 240 kts | 250° |
| 2026-04-27 01:09 | 41.32464 | -83.93874 | 17976 ft | 240 kts | 250° |
| 2026-04-27 01:09 | 41.31874 | -83.95930 | 17977 ft | 240 kts | 250° |
| 2026-04-27 01:09 | 41.31278 | -83.97999 | 17977 ft | 240 kts | 250° |
| 2026-04-27 01:09 | 41.30693 | -84.00075 | 17977 ft | 240 kts | 252° |
| 2026-04-27 01:10 | 41.30202 | -84.02190 | 17981 ft | 239 kts | 254° |
| 2026-04-27 01:10 | 41.29720 | -84.04307 | 17981 ft | 239 kts | 253° |
| 2026-04-27 01:10 | 41.29207 | -84.06413 | 17983 ft | 239 kts | 252° |
| 2026-04-27 01:10 | 41.28691 | -84.08513 | 17983 ft | 239 kts | 252° |
| 2026-04-27 01:11 | 41.28177 | -84.10620 | 17978 ft | 239 kts | 252° |
| 2026-04-27 01:11 | 41.27665 | -84.12725 | 17977 ft | 239 kts | 252° |
| 2026-04-27 01:11 | 41.27153 | -84.14828 | 17978 ft | 239 kts | 252° |
| 2026-04-27 01:11 | 41.26639 | -84.16932 | 17977 ft | 239 kts | 252° |
| 2026-04-27 01:12 | 41.26124 | -84.19038 | 17977 ft | 239 kts | 252° |
| 2026-04-27 01:12 | 41.25617 | -84.21111 | 17977 ft | 239 kts | 252° |
| 2026-04-27 01:12 | 41.25103 | -84.23212 | 17978 ft | 239 kts | 252° |
| 2026-04-27 01:12 | 41.24588 | -84.25315 | 17978 ft | 239 kts | 252° |
| 2026-04-27 01:13 | 41.24073 | -84.27416 | 17980 ft | 239 kts | 252° |
| 2026-04-27 01:13 | 41.23558 | -84.29518 | 17985 ft | 239 kts | 252° |
| 2026-04-27 01:13 | 41.23042 | -84.31616 | 17985 ft | 240 kts | 251° |
| 2026-04-27 01:13 | 41.22522 | -84.33728 | 17986 ft | 240 kts | 252° |
| 2026-04-27 01:14 | 41.22002 | -84.35842 | 17986 ft | 241 kts | 251° |
| 2026-04-27 01:14 | 41.21481 | -84.37959 | 17996 ft | 241 kts | 252° |
| 2026-04-27 01:14 | 41.20965 | -84.40053 | 17988 ft | 242 kts | 251° |
| 2026-04-27 01:14 | 41.20440 | -84.42179 | 17988 ft | 242 kts | 251° |
| 2026-04-27 01:15 | 41.19914 | -84.44307 | 17988 ft | 243 kts | 251° |
| 2026-04-27 01:15 | 41.19387 | -84.46441 | 17989 ft | 243 kts | 251° |
| 2026-04-27 01:15 | 41.18860 | -84.48573 | 17988 ft | 243 kts | 251° |
| 2026-04-27 01:15 | 41.18332 | -84.50707 | 17988 ft | 243 kts | 251° |
| 2026-04-27 01:16 | 41.17801 | -84.52845 | 17989 ft | 244 kts | 251° |
| 2026-04-27 01:16 | 41.17272 | -84.54979 | 17989 ft | 244 kts | 251° |
| 2026-04-27 01:16 | 41.16740 | -84.57120 | 17988 ft | 244 kts | 251° |
| 2026-04-27 01:16 | 41.16216 | -84.59231 | 17987 ft | 244 kts | 251° |
| 2026-04-27 01:17 | 41.15684 | -84.61368 | 17987 ft | 244 kts | 251° |
| 2026-04-27 01:17 | 41.15152 | -84.63506 | 17986 ft | 244 kts | 251° |
| 2026-04-27 01:17 | 41.14617 | -84.65651 | 17985 ft | 244 kts | 251° |
| 2026-04-27 01:17 | 41.14086 | -84.67786 | 17984 ft | 244 kts | 251° |
| 2026-04-27 01:18 | 41.13557 | -84.69902 | 17975 ft | 244 kts | 251° |
| 2026-04-27 01:18 | 41.13016 | -84.72066 | 17975 ft | 244 kts | 251° |
| 2026-04-27 01:18 | 41.12488 | -84.74175 | 17975 ft | 244 kts | 251° |
| 2026-04-27 01:18 | 41.11955 | -84.76305 | 17975 ft | 244 kts | 251° |
| 2026-04-27 01:19 | 41.11419 | -84.78444 | 17979 ft | 244 kts | 251° |
| 2026-04-27 01:19 | 41.10885 | -84.80577 | 17980 ft | 244 kts | 251° |
| 2026-04-27 01:19 | 41.10347 | -84.82715 | 17980 ft | 244 kts | 251° |
| 2026-04-27 01:19 | 41.09811 | -84.84851 | 17981 ft | 244 kts | 251° |
| 2026-04-27 01:20 | 41.09274 | -84.86985 | 17981 ft | 244 kts | 251° |
| 2026-04-27 01:20 | 41.08744 | -84.89094 | 17982 ft | 244 kts | 251° |
| 2026-04-27 01:20 | 41.08206 | -84.91228 | 17983 ft | 244 kts | 251° |
| 2026-04-27 01:20 | 41.07668 | -84.93361 | 17983 ft | 244 kts | 250° |
| 2026-04-27 01:21 | 41.07130 | -84.95492 | 17980 ft | 244 kts | 251° |
| 2026-04-27 01:21 | 41.06591 | -84.97628 | 17980 ft | 244 kts | 250° |
| 2026-04-27 01:21 | 41.06051 | -84.99764 | 17980 ft | 244 kts | 250° |
| 2026-04-27 01:21 | 41.05512 | -85.01894 | 17980 ft | 244 kts | 250° |
| 2026-04-27 01:22 | 41.04979 | -85.03997 | 17980 ft | 242 kts | 250° |
| 2026-04-27 01:22 | 41.04446 | -85.06101 | 17960 ft | 241 kts | 250° |
| 2026-04-27 01:22 | 41.03911 | -85.08206 | 17915 ft | 241 kts | 250° |
| 2026-04-27 01:22 | 41.03379 | -85.10303 | 17914 ft | 239 kts | 250° |
| 2026-04-27 01:23 | 41.02848 | -85.12391 | 17906 ft | 239 kts | 250° |
| 2026-04-27 01:23 | 41.02317 | -85.14478 | 17913 ft | 239 kts | 250° |
| 2026-04-27 01:23 | 41.01786 | -85.16566 | 17915 ft | 239 kts | 250° |
| 2026-04-27 01:23 | 41.01253 | -85.18655 | 17915 ft | 239 kts | 250° |
| 2026-04-27 01:24 | 41.00721 | -85.20742 | 17918 ft | 239 kts | 250° |
| 2026-04-27 01:24 | 41.00188 | -85.22829 | 17916 ft | 240 kts | 250° |
| 2026-04-27 01:24 | 40.99654 | -85.24921 | 17914 ft | 240 kts | 250° |
| 2026-04-27 01:24 | 40.99119 | -85.27011 | 17914 ft | 240 kts | 250° |
| 2026-04-27 01:25 | 40.98584 | -85.29103 | 17913 ft | 240 kts | 250° |
| 2026-04-27 01:25 | 40.98055 | -85.31169 | 17912 ft | 240 kts | 250° |
| 2026-04-27 01:25 | 40.97519 | -85.33260 | 17886 ft | 240 kts | 250° |
| 2026-04-27 01:25 | 40.96982 | -85.35350 | 17889 ft | 240 kts | 250° |
| 2026-04-27 01:26 | 40.96444 | -85.37446 | 17889 ft | 240 kts | 250° |
| 2026-04-27 01:26 | 40.95913 | -85.39511 | 17890 ft | 240 kts | 250° |
| 2026-04-27 01:26 | 40.95376 | -85.41599 | 17888 ft | 240 kts | 250° |
| 2026-04-27 01:26 | 40.94838 | -85.43691 | 17891 ft | 240 kts | 249° |
| 2026-04-27 01:27 | 40.94299 | -85.45780 | 17889 ft | 240 kts | 249° |
| 2026-04-27 01:27 | 40.93760 | -85.47870 | 17888 ft | 240 kts | 249° |
| 2026-04-27 01:27 | 40.93221 | -85.49958 | 17889 ft | 240 kts | 249° |
| 2026-04-27 01:27 | 40.92681 | -85.52048 | 17888 ft | 240 kts | 249° |
| 2026-04-27 01:28 | 40.92141 | -85.54137 | 17889 ft | 240 kts | 249° |
| 2026-04-27 01:28 | 40.91601 | -85.56223 | 17887 ft | 240 kts | 249° |
| 2026-04-27 01:28 | 40.91061 | -85.58307 | 17889 ft | 240 kts | 249° |
| 2026-04-27 01:28 | 40.90520 | -85.60395 | 17886 ft | 240 kts | 249° |
| 2026-04-27 01:29 | 40.89982 | -85.62468 | 17887 ft | 240 kts | 249° |
| 2026-04-27 01:29 | 40.89441 | -85.64552 | 17885 ft | 240 kts | 249° |
| 2026-04-27 01:29 | 40.88898 | -85.66639 | 17884 ft | 240 kts | 249° |
| 2026-04-27 01:29 | 40.88356 | -85.68725 | 17885 ft | 240 kts | 249° |
| 2026-04-27 01:30 | 40.87812 | -85.70811 | 17883 ft | 240 kts | 249° |
| 2026-04-27 01:30 | 40.87270 | -85.72895 | 17882 ft | 240 kts | 249° |
| 2026-04-27 01:30 | 40.86725 | -85.74981 | 17878 ft | 240 kts | 249° |
| 2026-04-27 01:30 | 40.86182 | -85.77064 | 17877 ft | 240 kts | 249° |
| 2026-04-27 01:31 | 40.85637 | -85.79149 | 17878 ft | 240 kts | 249° |
| 2026-04-27 01:31 | 40.85092 | -85.81232 | 17875 ft | 240 kts | 249° |
| 2026-04-27 01:31 | 40.84546 | -85.83318 | 17873 ft | 240 kts | 249° |
| 2026-04-27 01:31 | 40.84008 | -85.85373 | 17878 ft | 240 kts | 249° |
| 2026-04-27 01:32 | 40.83460 | -85.87465 | 17870 ft | 240 kts | 249° |
| 2026-04-27 01:32 | 40.82913 | -85.89546 | 17856 ft | 240 kts | 249° |
| 2026-04-27 01:32 | 40.82365 | -85.91636 | 17855 ft | 240 kts | 249° |
| 2026-04-27 01:32 | 40.81817 | -85.93720 | 17855 ft | 240 kts | 249° |
| 2026-04-27 01:33 | 40.81268 | -85.95807 | 17854 ft | 240 kts | 249° |
| 2026-04-27 01:33 | 40.80720 | -85.97889 | 17854 ft | 240 kts | 249° |
| 2026-04-27 01:33 | 40.80170 | -85.99973 | 17855 ft | 240 kts | 249° |
| 2026-04-27 01:33 | 40.79623 | -86.02052 | 17854 ft | 240 kts | 249° |
| 2026-04-27 01:34 | 40.79072 | -86.04136 | 17864 ft | 240 kts | 249° |
| 2026-04-27 01:34 | 40.78522 | -86.06218 | 17861 ft | 241 kts | 249° |
| 2026-04-27 01:34 | 40.77971 | -86.08304 | 17832 ft | 241 kts | 249° |
| 2026-04-27 01:34 | 40.77419 | -86.10391 | 17832 ft | 241 kts | 249° |
| 2026-04-27 01:35 | 40.76867 | -86.12477 | 17832 ft | 241 kts | 249° |
| 2026-04-27 01:35 | 40.76312 | -86.14568 | 17832 ft | 241 kts | 249° |
| 2026-04-27 01:35 | 40.75755 | -86.16669 | 17668 ft | 243 kts | 249° |
| 2026-04-27 01:35 | 40.75210 | -86.18722 | 17415 ft | 232 kts | 249° |
| 2026-04-27 01:36 | 40.74688 | -86.20689 | 17109 ft | 228 kts | 248° |
| 2026-04-27 01:36 | 40.74157 | -86.22680 | 16805 ft | 232 kts | 248° |
| 2026-04-27 01:36 | 40.73619 | -86.24699 | 16521 ft | 234 kts | 248° |
| 2026-04-27 01:36 | 40.73078 | -86.26733 | 16273 ft | 236 kts | 248° |
| 2026-04-27 01:37 | 40.72535 | -86.28773 | 15996 ft | 236 kts | 248° |
| 2026-04-27 01:37 | 40.71989 | -86.30819 | 15721 ft | 236 kts | 248° |
| 2026-04-27 01:37 | 40.71444 | -86.32862 | 15422 ft | 236 kts | 247° |
| 2026-04-27 01:37 | 40.70905 | -86.34881 | 15102 ft | 231 kts | 247° |
| 2026-04-27 01:38 | 40.70375 | -86.36864 | 14780 ft | 227 kts | 247° |
| 2026-04-27 01:38 | 40.69853 | -86.38811 | 14514 ft | 224 kts | 246° |
| 2026-04-27 01:38 | 40.69331 | -86.40755 | 14255 ft | 228 kts | 246° |
| 2026-04-27 01:38 | 40.68806 | -86.42709 | 14005 ft | 229 kts | 246° |
| 2026-04-27 01:39 | 40.68278 | -86.44680 | 13728 ft | 228 kts | 246° |
| 2026-04-27 01:39 | 40.67747 | -86.46660 | 13383 ft | 229 kts | 246° |
| 2026-04-27 01:39 | 40.67214 | -86.48644 | 13062 ft | 229 kts | 246° |
| 2026-04-27 01:39 | 40.66682 | -86.50623 | 12739 ft | 229 kts | 246° |
| 2026-04-27 01:40 | 40.66150 | -86.52597 | 12415 ft | 229 kts | 246° |
| 2026-04-27 01:40 | 40.65620 | -86.54568 | 12102 ft | 227 kts | 246° |
| 2026-04-27 01:40 | 40.65092 | -86.56525 | 11794 ft | 226 kts | 246° |
| 2026-04-27 01:40 | 40.64568 | -86.58471 | 11495 ft | 224 kts | 246° |
| 2026-04-27 01:41 | 40.64060 | -86.60354 | 11210 ft | 216 kts | 245° |
| 2026-04-27 01:41 | 40.63568 | -86.62175 | 10943 ft | 207 kts | 245° |
| 2026-04-27 01:41 | 40.63088 | -86.63942 | 10706 ft | 208 kts | 245° |
| 2026-04-27 01:41 | 40.62587 | -86.65778 | 10491 ft | 217 kts | 245° |
| 2026-04-27 01:42 | 40.62085 | -86.67643 | 10250 ft | 215 kts | 245° |
| 2026-04-27 01:42 | 40.61585 | -86.69495 | 10010 ft | 214 kts | 245° |
| 2026-04-27 01:42 | 40.61085 | -86.71338 | 9738 ft | 214 kts | 245° |
| 2026-04-27 01:42 | 40.60586 | -86.73174 | 9471 ft | 213 kts | 245° |
| 2026-04-27 01:43 | 40.60086 | -86.75012 | 9207 ft | 213 kts | 245° |
| 2026-04-27 01:43 | 40.59587 | -86.76850 | 8954 ft | 213 kts | 245° |
| 2026-04-27 01:43 | 40.59088 | -86.78684 | 8703 ft | 213 kts | 245° |
| 2026-04-27 01:43 | 40.58590 | -86.80517 | 8457 ft | 213 kts | 245° |
| 2026-04-27 01:44 | 40.58095 | -86.82331 | 8216 ft | 213 kts | 245° |
| 2026-04-27 01:44 | 40.57595 | -86.84166 | 7978 ft | 212 kts | 245° |
| 2026-04-27 01:44 | 40.57097 | -86.85994 | 7739 ft | 212 kts | 245° |
| 2026-04-27 01:44 | 40.56599 | -86.87818 | 7465 ft | 211 kts | 245° |
| 2026-04-27 01:45 | 40.56104 | -86.89628 | 7179 ft | 210 kts | 245° |
| 2026-04-27 01:45 | 40.55618 | -86.91408 | 6909 ft | 209 kts | 245° |
| 2026-04-27 01:45 | 40.55118 | -86.93232 | 6640 ft | 209 kts | 245° |
| 2026-04-27 01:45 | 40.54627 | -86.95030 | 6377 ft | 209 kts | 245° |
| 2026-04-27 01:46 | 40.54141 | -86.96803 | 6123 ft | 208 kts | 244° |
| 2026-04-27 01:46 | 40.53641 | -86.98620 | 5904 ft | 214 kts | 245° |
| 2026-04-27 01:46 | 40.53132 | -87.00477 | 5678 ft | 217 kts | 245° |
| 2026-04-27 01:46 | 40.52620 | -87.02347 | 5444 ft | 217 kts | 245° |
| 2026-04-27 01:47 | 40.52114 | -87.04193 | 5223 ft | 213 kts | 245° |
| 2026-04-27 01:47 | 40.51615 | -87.06006 | 4989 ft | 210 kts | 245° |
| 2026-04-27 01:47 | 40.51285 | -87.07200 | 4831 ft | 209 kts | 245° |
| 2026-04-27 01:47 | 40.50624 | -87.09602 | 4500 ft | 208 kts | 245° |
| 2026-04-27 01:48 | 40.50300 | -87.10780 | 4332 ft | 207 kts | 245° |
| 2026-04-27 01:48 | 40.49810 | -87.12558 | 4097 ft | 209 kts | 244° |
| 2026-04-27 01:48 | 40.49312 | -87.14356 | 3824 ft | 207 kts | 244° |
| 2026-04-27 01:48 | 40.48671 | -87.16685 | 3448 ft | 203 kts | 244° |
| 2026-04-27 01:49 | 40.48347 | -87.17856 | 3249 ft | 202 kts | 243° |
| 2026-04-27 01:49 | 40.47870 | -87.19578 | 2929 ft | 199 kts | 243° |
| 2026-04-27 01:49 | 40.47410 | -87.21211 | 2629 ft | 182 kts | 239° |
| 2026-04-27 01:49 | 40.46625 | -87.22401 | 2322 ft | 167 kts | 198° |
| 2026-04-27 01:50 | 40.45596 | -87.22517 | 2285 ft | 140 kts | 156° |
| 2026-04-27 01:50 | 40.44830 | -87.21864 | 2277 ft | 131 kts | 129° |
| 2026-04-27 01:50 | 40.44447 | -87.20792 | 2277 ft | 134 kts | 103° |
| 2026-04-27 01:50 | 40.44318 | -87.19555 | 2283 ft | 138 kts | 104° |
| 2026-04-27 01:51 | 40.44194 | -87.18295 | 2300 ft | 140 kts | 101° |
| 2026-04-27 01:51 | 40.44058 | -87.17022 | 2313 ft | 141 kts | 102° |
| 2026-04-27 01:51 | 40.43915 | -87.15747 | 2302 ft | 141 kts | 102° |
| 2026-04-27 01:51 | 40.43758 | -87.14474 | 2301 ft | 141 kts | 103° |
| 2026-04-27 01:52 | 40.43603 | -87.13198 | 2301 ft | 142 kts | 102° |
| 2026-04-27 01:52 | 40.43445 | -87.11914 | 2301 ft | 143 kts | 102° |
| 2026-04-27 01:52 | 40.43290 | -87.10627 | 2303 ft | 142 kts | 102° |
| 2026-04-27 01:52 | 40.43132 | -87.09349 | 2306 ft | 141 kts | 103° |
| 2026-04-27 01:53 | 40.42995 | -87.08201 | 2262 ft | 110 kts | 103° |
| 2026-04-27 01:53 | 40.42879 | -87.07246 | 2295 ft | 107 kts | 103° |
| 2026-04-27 01:53 | 40.42756 | -87.06260 | 2300 ft | 113 kts | 103° |
| 2026-04-27 01:53 | 40.42628 | -87.05206 | 2156 ft | 120 kts | 102° |
| 2026-04-27 01:54 | 40.42494 | -87.04108 | 1989 ft | 123 kts | 103° |
| 2026-04-27 01:54 | 40.42362 | -87.03014 | 1828 ft | 123 kts | 103° |
| 2026-04-27 01:54 | 40.42225 | -87.01905 | 1663 ft | 122 kts | 102° |
| 2026-04-27 01:54 | 40.42104 | -87.00873 | 1481 ft | 106 kts | 99° |
| 2026-04-27 01:55 | 40.41995 | -86.99968 | 1357 ft | 96 kts | 101° |
| 2026-04-27 01:55 | 40.41894 | -86.99166 | 1261 ft | 91 kts | 102° |
| 2026-04-27 01:55 | 40.41784 | -86.98328 | 1134 ft | 95 kts | 99° |
| 2026-04-27 01:55 | 40.41688 | -86.97471 | 1005 ft | 95 kts | 97° |
| 2026-04-27 01:56 | 40.41483 | -86.95839 | 761 ft | 85 kts | 94° |
| 2026-04-27 01:56 | 40.41395 | -86.95087 | 645 ft | 76 kts | 99° |
| 2026-04-27 01:56 | 40.41324 | -86.94473 | 603 ft | 58 kts | 96° |
| 2026-04-27 01:57 | 40.41273 | -86.94079 | 599 ft | 25 kts | 101° |
| 2026-04-27 01:57 | 40.41253 | -86.93918 | 599 ft | 22 kts | 99° |
| 2026-04-27 01:57 | 40.41235 | -86.93731 | 598 ft | 10 kts | 81° |
| 2026-04-27 01:57 | 40.41302 | -86.93665 | 600 ft | 11 kts | 12° |
| 2026-04-27 01:58 | 40.41326 | -86.93599 | 600 ft | 6 kts | 96° |
| 2026-04-27 01:58 | 40.41318 | -86.93528 | 600 ft | 12 kts | 98° |
| 2026-04-27 01:58 | 40.41307 | -86.93447 | 600 ft | 6 kts | 101° |
| 2026-04-27 01:58 | 40.41296 | -86.93360 | 600 ft | 13 kts | 98° |
| 2026-04-27 01:59 | 40.41338 | -86.93250 | 600 ft | 14 kts | 37° |
| 2026-04-27 01:59 | 40.41439 | -86.93229 | 600 ft | 14 kts | 4° |
| 2026-04-27 01:59 | 40.41500 | -86.93172 | 600 ft | 8 kts | 46° |
| 2026-04-27 01:59 | 40.41540 | -86.93114 | 600 ft | 7 kts | 50° |
| 2026-04-27 02:00 | 40.41569 | -86.93064 | 600 ft | 6 kts | 73° |
| 2026-04-27 02:00 | 40.41545 | -86.93032 | 600 ft | 6 kts | 197° |
| 2026-04-27 02:00 | 40.41537 | -86.93047 | 600 ft | 0 kts | 259° |